Time;durP1;ratioP1;P1;durP2;ratioP2;P2;SDS_P1;SDS_P2;PMS_P1;PMS_P2;Temp;Humidity;BMP_temperature;BMP_pressure;BME280_temperature;BME280_humidity;BME280_pressure;Samples;Min_cycle;Max_cycle;Signal;HPM_P1;HPM_P2
2022/06/06 00:02:12;;;;;;;;;;;;;;;16.39;72.61;98082.56;5104971;28;20223;-53
2022/06/06 00:04:40;;;;;;;;;;;;;;;16.32;72.70;98076.88;5109059;27;19959;-54
2022/06/06 00:07:08;;;;;;;;;;;;;;;16.33;72.78;98072.97;5103896;28;19923;-54
2022/06/06 00:09:36;;;;;;;;;;;;;;;16.22;72.83;98072.66;5102817;28;20402;-53
2022/06/06 00:12:24;;;;;;;;;;;;;;;16.24;73.01;98071.16;5094886;28;19988;-48
2022/06/06 00:15:14;;;;;;;;;;;;;;;16.28;72.68;98065.78;5087962;28;20279;-53
2022/06/06 00:18:03;;;;;;;;;;;;;;;16.34;72.74;98071.81;5091205;28;19920;-53
2022/06/06 00:20:53;;;;;;;;;;;;;;;16.31;72.62;98069.78;5096691;28;19946;-51
2022/06/06 00:23:41;;;;;;;;;;;;;;;16.32;72.31;98065.91;5096052;28;20030;-54
2022/06/06 00:26:31;;;;;;;;;;;;;;;16.33;72.55;98064.75;5099124;28;19942;-53
2022/06/06 00:29:27;;;;;;;;;;;;;;;16.31;72.33;98064.31;5090671;28;20025;-52
2022/06/06 00:35:22;;;;;;;;;;;;;;;16.26;72.45;98061.81;5095130;28;20215;-52
2022/06/06 00:38:11;;;;;;;;;;;;;;;16.21;72.37;98060.88;5099691;28;20367;-52
2022/06/06 00:41:01;;;;;;;;;;;;;;;16.28;72.59;98059.50;5090741;28;20430;-52
2022/06/06 00:44:01;;;;;;;;;;;;;;;16.40;72.38;98051.25;5090577;28;19920;-52
2022/06/06 00:46:58;;;;;;;;;;;;;;;16.35;72.13;98056.97;5100257;28;19943;-52
2022/06/06 00:49:50;;;;;;;;;;;;;;;16.35;72.07;98059.72;5093150;28;19978;-52
2022/06/06 00:52:39;;;;;;;;;;;;;;;16.35;72.08;98059.72;5097797;28;19924;-50
2022/06/06 00:55:28;;;;;;;;;;;;;;;16.33;71.94;98056.53;5094246;28;20219;-52
2022/06/06 00:58:18;;;;;;;;;;;;;;;16.32;72.35;98054.94;5094461;28;19923;-49
2022/06/06 01:00:46;;;;;;;;;;;;;;;16.30;71.91;98057.19;5105572;28;19941;-54
2022/06/06 01:03:17;;;;;;;;;;;;;;;16.24;71.95;98057.47;5101173;28;20260;-54
2022/06/06 01:05:45;;;;;;;;;;;;;;;16.31;72.04;98058.81;5101109;28;20348;-53
2022/06/06 01:08:14;;;;;;;;;;;;;;;16.31;71.85;98053.34;5106986;28;20363;-54
2022/06/06 01:10:43;;;;;;;;;;;;;;;16.30;72.13;98051.72;5098165;28;20631;-54
2022/06/06 01:13:11;;;;;;;;;;;;;;;16.32;72.18;98054.94;5102338;28;19928;-52
2022/06/06 01:15:44;;;;;;;;;;;;;;;16.36;71.90;98053.09;5104265;27;19931;-52
2022/06/06 01:18:34;;;;;;;;;;;;;;;16.37;71.79;98047.28;5093744;28;20003;-54
2022/06/06 01:21:40;;;;;;;;;;;;;;;16.53;71.71;98046.56;5093864;28;20402;-48
2022/06/06 01:24:32;;;;;;;;;;;;;;;16.46;71.71;98050.69;5090736;28;19924;-51
2022/06/06 01:27:26;;;;;;;;;;;;;;;16.43;71.66;98048.63;5098183;28;19919;-53
2022/06/06 01:31:08;;;;;;;;;;;;;;;16.45;71.65;98053.75;5095802;28;19919;-51
2022/06/06 01:33:58;;;;;;;;;;;;;;;16.44;71.67;98050.22;5098443;28;19955;-51
2022/06/06 01:40:03;;;;;;;;;;;;;;;16.38;72.10;98048.06;5094442;28;19978;-51
2022/06/06 01:42:52;;;;;;;;;;;;;;;16.36;71.95;98059.38;5098302;28;20010;-53
2022/06/06 01:45:42;;;;;;;;;;;;;;;16.35;72.05;98048.75;5100370;28;20393;-52
2022/06/06 01:48:33;;;;;;;;;;;;;;;16.47;71.78;98051.47;5093064;28;19924;-53
2022/06/06 01:51:24;;;;;;;;;;;;;;;16.44;71.93;98049.41;5098186;28;20018;-51
2022/06/06 01:54:15;;;;;;;;;;;;;;;16.41;71.71;98047.38;5099315;28;20004;-51
2022/06/06 01:57:04;;;;;;;;;;;;;;;16.60;71.30;98041.25;5097185;28;19923;-53
2022/06/06 02:00:17;;;;;;;;;;;;;;;16.48;71.69;98044.84;5095220;28;19920;-47
2022/06/06 02:03:06;;;;;;;;;;;;;;;16.71;71.51;98043.19;5094408;28;19926;-50
2022/06/06 02:05:56;;;;;;;;;;;;;;;16.57;71.61;98044.72;5093141;28;19927;-53
2022/06/06 02:08:47;;;;;;;;;;;;;;;16.46;71.86;98050.69;5087250;28;19963;-51
2022/06/06 02:11:35;;;;;;;;;;;;;;;16.50;71.99;98048.03;5098613;28;19920;-51
2022/06/06 02:14:23;;;;;;;;;;;;;;;16.63;71.35;98052.34;5092298;28;19969;-53
2022/06/06 02:20:28;;;;;;;;;;;;;;;16.31;72.31;98042.38;5097730;28;20087;-53
2022/06/06 02:23:21;;;;;;;;;;;;;;;16.36;72.28;98055.84;5096738;28;19942;-51
2022/06/06 02:26:10;;;;;;;;;;;;;;;16.38;71.93;98059.81;5088821;28;20416;-49
2022/06/06 02:28:59;;;;;;;;;;;;;;;16.36;72.07;98055.84;5088175;28;19925;-53
2022/06/06 02:32:11;;;;;;;;;;;;;;;16.43;71.82;98056.84;5088908;28;20399;-52
2022/06/06 02:35:04;;;;;;;;;;;;;;;16.61;71.14;98056.56;5093049;28;20331;-52
2022/06/06 02:37:56;;;;;;;;;;;;;;;16.59;70.99;98059.66;5097227;28;20016;-48
2022/06/06 02:40:46;;;;;;;;;;;;;;;16.57;71.23;98061.19;5100895;28;19923;-51
2022/06/06 02:43:34;;;;;;;;;;;;;;;16.50;70.81;98057.06;5095238;28;19931;-51
2022/06/06 02:46:23;;;;;;;;;;;;;;;16.43;71.19;98056.06;5092525;28;19924;-47
2022/06/06 02:49:11;;;;;;;;;;;;;;;16.49;71.26;98058.19;5093418;28;19962;-51
2022/06/06 02:52:00;;;;;;;;;;;;;;;16.40;71.41;98063.00;5096550;28;20306;-53
2022/06/06 02:54:48;;;;;;;;;;;;;;;16.35;71.60;98067.94;5095505;28;19930;-51
2022/06/06 03:00:53;;;;;;;;;;;;;;;16.33;71.88;98065.53;5095962;28;20403;-53
2022/06/06 03:03:42;;;;;;;;;;;;;;;16.36;71.65;98067.59;5091430;28;19924;-51
2022/06/06 03:06:34;;;;;;;;;;;;;;;16.35;71.67;98068.75;5099402;28;19923;-49
2022/06/06 03:09:26;;;;;;;;;;;;;;;16.22;72.03;98067.16;5099851;28;20380;-52
2022/06/06 03:12:19;;;;;;;;;;;;;;;16.20;71.97;98073.00;5096622;28;20363;-53
2022/06/06 03:15:15;;;;;;;;;;;;;;;16.18;72.03;98075.25;5097324;28;19991;-53
2022/06/06 03:21:21;;;;;;;;;;;;;;;16.52;70.52;98064.94;5087184;28;20322;-53
2022/06/06 03:24:14;;;;;;;;;;;;;;;16.23;71.63;98064.06;5091972;28;20463;-52
2022/06/06 03:27:09;;;;;;;;;;;;;;;16.20;71.79;98080.44;5093878;28;20321;-52
2022/06/06 03:33:17;;;;;;;;;;;;;;;16.02;72.40;98085.31;5086366;28;19924;-53
2022/06/06 03:36:13;;;;;;;;;;;;;;;15.92;72.63;98089.31;5095327;28;19927;-51
2022/06/06 03:39:04;;;;;;;;;;;;;;;16.02;72.48;98090.00;5097599;28;20299;-54
2022/06/06 03:41:55;;;;;;;;;;;;;;;16.04;72.24;98091.28;5094991;28;20383;-49
2022/06/06 03:44:48;;;;;;;;;;;;;;;15.92;72.90;98096.72;5096868;28;20360;-53
2022/06/06 03:47:44;;;;;;;;;;;;;;;15.94;72.58;98095.25;5094789;28;20331;-53
2022/06/06 03:50:36;;;;;;;;;;;;;;;16.04;72.61;98095.97;5095861;28;19974;-50
2022/06/06 03:53:28;;;;;;;;;;;;;;;15.99;72.32;98097.00;5093705;28;19924;-52
2022/06/06 03:56:21;;;;;;;;;;;;;;;16.00;72.63;98097.78;5093231;28;19919;-53
2022/06/06 03:59:10;;;;;;;;;;;;;;;15.95;72.72;98115.25;5094278;28;19924;-52
2022/06/06 04:01:59;;;;;;;;;;;;;;;15.98;72.33;98120.84;5094775;28;19920;-53
2022/06/06 04:04:48;;;;;;;;;;;;;;;16.20;71.70;98135.25;5096775;28;19946;-49
2022/06/06 04:07:38;;;;;;;;;;;;;;;16.06;72.51;98132.84;5098744;28;20264;-52
2022/06/06 04:10:52;;;;;;;;;;;;;;;16.39;70.88;98127.22;5098689;28;19923;-53
2022/06/06 04:13:44;;;;;;;;;;;;;;;16.03;72.35;98132.72;5097684;28;19930;-51
2022/06/06 04:16:38;;;;;;;;;;;;;;;16.10;72.26;98133.75;5091864;28;20027;-53
2022/06/06 04:19:29;;;;;;;;;;;;;;;16.27;71.47;98137.41;5095871;28;19923;-53
2022/06/06 04:22:20;;;;;;;;;;;;;;;16.04;72.33;98139.81;5095324;28;19920;-52
2022/06/06 04:25:11;;;;;;;;;;;;;;;16.09;72.28;98145.88;5094031;28;19981;-53
2022/06/06 04:31:17;;;;;;;;;;;;;;;15.97;72.83;98132.13;5093410;28;20146;-53
2022/06/06 04:34:09;;;;;;;;;;;;;;;16.02;72.45;98137.38;5093783;28;19996;-49
2022/06/06 04:37:00;;;;;;;;;;;;;;;16.09;72.49;98143.13;5086912;28;19919;-53
2022/06/06 04:39:50;;;;;;;;;;;;;;;16.21;72.15;98147.81;5102936;28;19920;-50
2022/06/06 04:42:41;;;;;;;;;;;;;;;16.26;71.98;98146.78;5089687;28;19921;-52
2022/06/06 04:45:55;;;;;;;;;;;;;;;16.42;71.21;98159.47;5102317;28;19934;-51
2022/06/06 04:48:43;;;;;;;;;;;;;;;16.45;71.27;98155.22;5094870;28;19931;-52
2022/06/06 04:51:35;;;;;;;;;;;;;;;16.54;71.04;98160.59;5091815;28;19920;-52
2022/06/06 04:54:24;;;;;;;;;;;;;;;16.64;70.65;98165.59;5098701;28;20015;-53
2022/06/06 04:57:14;;;;;;;;;;;;;;;16.65;70.70;98158.97;5098885;28;19924;-51
2022/06/06 05:00:05;;;;;;;;;;;;;;;16.71;70.05;98160.38;5097536;28;19964;-52
2022/06/06 05:02:54;;;;;;;;;;;;;;;16.71;70.13;98161.16;5094852;28;20337;-52
2022/06/06 05:06:11;;;;;;;;;;;;;;;16.69;70.43;98165.38;5098137;28;20572;-52
2022/06/06 05:09:06;;;;;;;;;;;;;;;16.67;70.67;98165.72;5094312;28;19924;-52
2022/06/06 05:11:57;;;;;;;;;;;;;;;16.63;70.56;98161.28;5100253;28;19967;-54
2022/06/06 05:14:50;;;;;;;;;;;;;;;16.84;70.31;98163.91;5097073;28;19924;-53
2022/06/06 05:17:43;;;;;;;;;;;;;;;16.73;70.43;98169.88;5093677;28;19984;-52
2022/06/06 05:21:10;;;;;;;;;;;;;;;16.90;70.40;98170.75;5096939;28;19932;-49
2022/06/06 05:24:07;;;;;;;;;;;;;;;16.92;70.45;98171.19;5096733;28;20390;-51
2022/06/06 05:27:04;;;;;;;;;;;;;;;17.12;70.08;98175.72;5093203;28;20315;-54
2022/06/06 05:29:59;;;;;;;;;;;;;;;17.17;69.69;98183.72;5097179;28;20753;-49
2022/06/06 05:36:20;;;;;;;;;;;;;;;17.27;69.68;98174.19;5092425;28;20057;-52
2022/06/06 05:39:14;;;;;;;;;;;;;;;17.34;68.99;98181.81;5054100;28;19924;-53
2022/06/06 05:42:08;;;;;;;;;;;;;;;17.25;69.07;98177.25;5054818;28;19924;-52
2022/06/06 05:45:00;;;;;;;;;;;;;;;17.14;69.39;98178.91;5049871;28;19929;-52
2022/06/06 05:47:51;;;;;;;;;;;;;;;17.20;69.26;98182.19;5051856;28;19929;-53
2022/06/06 05:50:48;;;;;;;;;;;;;;;17.20;69.52;98187.69;5057046;28;20245;-52
2022/06/06 05:53:51;;;;;;;;;;;;;;;17.34;69.62;98184.56;5047388;28;20054;-53
2022/06/06 05:56:55;;;;;;;;;;;;;;;17.39;69.21;98178.81;5056118;28;20391;-51
2022/06/06 05:59:53;;;;;;;;;;;;;;;17.39;69.05;98173.34;5058100;28;19924;-51
2022/06/06 06:02:46;;;;;;;;;;;;;;;17.29;69.31;98175.41;5052306;28;19928;-53
2022/06/06 06:08:58;;;;;;;;;;;;;;;17.40;69.08;98169.44;5055660;28;19928;-51
2022/06/06 06:11:51;;;;;;;;;;;;;;;17.63;68.72;98173.25;5052655;28;20372;-53
2022/06/06 06:14:47;;;;;;;;;;;;;;;17.87;68.33;98177.03;5051778;28;19947;-53
2022/06/06 06:17:37;;;;;;;;;;;;;;;17.92;67.46;98179.50;5047864;28;19970;-53
2022/06/06 06:20:29;;;;;;;;;;;;;;;17.72;68.23;98176.63;5052876;28;20420;-51
2022/06/06 06:23:20;;;;;;;;;;;;;;;17.62;67.73;98181.81;5055313;28;20550;-53
2022/06/06 06:26:13;;;;;;;;;;;;;;;17.68;68.46;98183.94;5051852;28;20312;-53
2022/06/06 06:29:27;;;;;;;;;;;;;;;17.93;67.54;98179.16;5053709;28;19925;-53
2022/06/06 06:32:24;;;;;;;;;;;;;;;17.75;67.74;98181.44;5054695;28;20509;-53
2022/06/06 06:35:14;;;;;;;;;;;;;;;17.67;67.94;98189.78;5055428;28;20394;-52
2022/06/06 06:38:05;;;;;;;;;;;;;;;17.65;68.07;98192.91;5075746;28;20158;-54
2022/06/06 06:41:23;;;;;;;;;;;;;;;17.77;68.17;98194.81;5094337;28;20179;-54
2022/06/06 06:44:12;;;;;;;;;;;;;;;17.85;68.05;98201.31;5093772;28;19920;-53
2022/06/06 06:47:08;;;;;;;;;;;;;;;18.00;67.51;98197.78;5075926;28;19924;-54
2022/06/06 06:49:57;;;;;;;;;;;;;;;18.16;67.56;98198.56;5096912;28;19932;-53
2022/06/06 06:52:53;;;;;;;;;;;;;;;18.07;66.94;98192.47;5096203;28;20350;-54
2022/06/06 06:55:47;;;;;;;;;;;;;;;17.96;67.02;98200.44;5095556;28;19946;-52
2022/06/06 06:58:41;;;;;;;;;;;;;;;17.75;67.28;98206.16;5094542;28;20039;-52
2022/06/06 07:01:33;;;;;;;;;;;;;;;17.69;67.80;98207.53;5087523;28;20019;-52
2022/06/06 07:10:40;;;;;;;;;;;;;;;17.95;67.59;98200.78;5095847;28;19919;-52
2022/06/06 07:13:47;;;;;;;;;;;;;;;17.98;67.06;98198.13;5094815;28;20287;-51
2022/06/06 07:16:36;;;;;;;;;;;;;;;17.96;67.08;98199.66;5094779;28;19977;-52
2022/06/06 07:19:30;;;;;;;;;;;;;;;18.17;66.83;98193.91;5094226;28;20239;-53
2022/06/06 07:22:19;;;;;;;;;;;;;;;18.42;66.78;98198.03;5093059;28;19920;-53
2022/06/06 07:25:09;;;;;;;;;;;;;;;18.51;65.61;98195.13;5089416;28;19928;-54
2022/06/06 07:28:01;;;;;;;;;;;;;;;18.52;65.53;98188.47;5090186;28;19931;-53
2022/06/06 07:30:54;;;;;;;;;;;;;;;18.44;65.82;98184.75;5095791;28;19924;-53
2022/06/06 07:34:08;;;;;;;;;;;;;;;18.51;65.36;98189.63;5093367;28;20659;-53
2022/06/06 07:37:05;;;;;;;;;;;;;;;18.60;65.30;98193.00;5090788;28;19920;-53
2022/06/06 07:39:56;;;;;;;;;;;;;;;18.48;64.81;98188.41;5095814;28;19956;-53
2022/06/06 07:42:50;;;;;;;;;;;;;;;18.64;64.72;98185.59;5103459;28;19920;-53
2022/06/06 07:45:40;;;;;;;;;;;;;;;18.53;64.40;98187.31;5103862;28;20331;-54
2022/06/06 07:48:42;;;;;;;;;;;;;;;18.52;64.76;98185.72;5092748;28;19924;-54
2022/06/06 07:51:56;;;;;;;;;;;;;;;18.71;64.55;98174.81;5102627;28;19924;-53
2022/06/06 07:54:48;;;;;;;;;;;;;;;18.99;63.55;98177.38;5100470;28;19927;-53
2022/06/06 07:57:39;;;;;;;;;;;;;;;19.06;63.02;98177.53;5098915;28;20060;-53
2022/06/06 08:00:28;;;;;;;;;;;;;;;19.29;62.17;98169.38;5097902;28;20300;-54
2022/06/06 08:03:18;;;;;;;;;;;;;;;19.29;62.12;98174.88;5100078;28;19947;-53
2022/06/06 08:06:20;;;;;;;;;;;;;;;19.22;60.57;98169.22;5100030;28;20110;-53
2022/06/06 08:09:24;;;;;;;;;;;;;;;19.32;60.83;98171.38;5099038;28;20018;-53
2022/06/06 08:12:16;;;;;;;;;;;;;;;19.42;61.14;98164.50;5100706;28;20135;-53
2022/06/06 08:15:11;;;;;;;;;;;;;;;19.53;60.60;98164.72;5095555;28;19975;-52
2022/06/06 08:18:10;;;;;;;;;;;;;;;19.44;60.96;98169.63;5099706;28;19919;-53
2022/06/06 08:21:10;;;;;;;;;;;;;;;19.65;60.55;98164.56;5100621;28;19924;-54
2022/06/06 08:24:25;;;;;;;;;;;;;;;19.81;60.02;98159.75;5097270;28;19919;-49
2022/06/06 08:27:31;;;;;;;;;;;;;;;20.15;58.05;98165.50;5099389;28;20014;-53
2022/06/06 08:30:21;;;;;;;;;;;;;;;20.28;57.04;98169.63;5095825;28;19931;-52
2022/06/06 08:33:10;;;;;;;;;;;;;;;20.24;58.80;98173.50;5088142;28;19942;-53
2022/06/06 08:36:03;;;;;;;;;;;;;;;20.42;57.98;98164.34;5101925;28;19920;-53
2022/06/06 08:39:03;;;;;;;;;;;;;;;20.26;56.93;98171.97;5093447;28;19924;-52
2022/06/06 08:42:12;;;;;;;;;;;;;;;20.25;58.79;98169.59;5096517;28;20429;-51
2022/06/06 08:45:19;;;;;;;;;;;;;;;20.31;57.22;98171.66;5102317;28;19930;-48
2022/06/06 08:48:12;;;;;;;;;;;;;;;20.39;56.54;98167.03;5091664;28;19942;-53
2022/06/06 08:51:23;;;;;;;;;;;;;;;20.50;55.30;98161.72;5087535;28;19930;-53
2022/06/06 08:54:27;;;;;;;;;;;;;;;20.26;56.34;98163.69;5099658;28;19923;-52
2022/06/06 08:57:31;;;;;;;;;;;;;;;20.29;55.68;98157.44;5094083;28;19919;-53
2022/06/06 09:00:21;;;;;;;;;;;;;;;20.68;55.45;98146.25;5097601;28;19931;-53
2022/06/06 09:03:25;;;;;;;;;;;;;;;20.67;55.28;98142.69;5091377;28;19923;-55
2022/06/06 09:06:39;;;;;;;;;;;;;;;20.81;54.77;98144.06;5096818;28;20237;-52
2022/06/06 09:09:46;;;;;;;;;;;;;;;20.90;55.28;98145.38;5096769;28;19923;-52
2022/06/06 09:12:50;;;;;;;;;;;;;;;20.59;54.66;98137.44;5097940;28;19924;-53
2022/06/06 09:15:53;;;;;;;;;;;;;;;20.50;55.36;98134.94;5091171;28;19975;-54
2022/06/06 09:21:55;;;;;;;;;;;;;;;20.81;53.33;98138.53;5103816;28;19978;-54
2022/06/06 09:24:40;;;;;;;;;;;;;;;20.90;53.52;98134.31;5102834;28;20336;-54
2022/06/06 09:27:23;;;;;;;;;;;;;;;21.09;52.88;98129.81;5107213;28;19920;-55
2022/06/06 09:30:21;;;;;;;;;;;;;;;21.09;52.65;98135.34;5105391;28;19927;-55
2022/06/06 09:33:20;;;;;;;;;;;;;;;21.19;51.86;98126.41;5102940;28;20347;-52
2022/06/06 09:35:56;;;;;;;;;;;;;;;21.09;52.20;98129.81;5025320;28;19921;-55
2022/06/06 09:38:26;;;;;;;;;;;;;;;20.92;52.35;98131.97;5091900;28;19924;-54
2022/06/06 09:40:59;;;;;;;;;;;;;;;20.85;53.34;98137.41;5100621;28;19966;-54
2022/06/06 09:43:32;;;;;;;;;;;;;;;20.76;52.03;98136.88;5103266;28;20252;-55
2022/06/06 09:49:28;;;;;;;;;;;;;;;20.32;54.21;98142.91;5103123;28;19927;-53
2022/06/06 09:52:13;;;;;;;;;;;;;;;20.13;54.83;98140.22;5106558;28;19931;-54
2022/06/06 10:01:05;;;;;;;;;;;;;;;20.30;54.71;98134.22;5100714;28;19978;-54
2022/06/06 10:04:08;;;;;;;;;;;;;;;20.23;54.49;98134.09;5106929;28;19920;-54
2022/06/06 10:06:51;;;;;;;;;;;;;;;20.18;54.39;98128.06;5100640;28;19919;-54
2022/06/06 10:09:25;;;;;;;;;;;;;;;20.11;54.43;98137.84;5093625;28;19935;-53
2022/06/06 10:12:00;;;;;;;;;;;;;;;20.13;55.28;98124.50;5102924;28;20030;-54
2022/06/06 10:14:38;;;;;;;;;;;;;;;20.28;54.08;98119.97;5106289;28;20262;-54
2022/06/06 10:17:25;;;;;;;;;;;;;;;20.38;54.32;98119.34;5104122;28;19920;-51
2022/06/06 10:20:02;;;;;;;;;;;;;;;20.60;53.84;98116.94;5099272;28;19927;-52
2022/06/06 10:22:58;;;;;;;;;;;;;;;20.74;52.59;98116.34;5086094;28;20359;-53
2022/06/06 10:25:29;;;;;;;;;;;;;;;20.51;53.13;98121.94;5080555;28;19924;-50
2022/06/06 10:28:16;;;;;;;;;;;;;;;20.55;53.70;98117.25;5100288;27;19924;-53
2022/06/06 10:30:49;;;;;;;;;;;;;;;20.57;53.49;98121.25;5104472;28;19969;-54
2022/06/06 10:33:34;;;;;;;;;;;;;;;20.77;53.75;98113.63;5104974;28;20374;-54
2022/06/06 10:36:17;;;;;;;;;;;;;;;20.77;52.35;98115.59;5103422;28;19926;-54
2022/06/06 10:38:52;;;;;;;;;;;;;;;21.00;52.54;98110.78;5100943;28;19963;-54
2022/06/06 10:41:26;;;;;;;;;;;;;;;21.22;51.41;98106.31;5094873;28;19920;-55
2022/06/06 10:44:00;;;;;;;;;;;;;;;21.23;52.08;98107.91;5100260;28;19923;-54
2022/06/06 10:46:32;;;;;;;;;;;;;;;21.54;51.98;98100.38;5099720;28;19927;-54
2022/06/06 10:49:07;;;;;;;;;;;;;;;21.51;48.42;98101.13;5102893;28;19989;-54
2022/06/06 10:51:53;;;;;;;;;;;;;;;21.57;48.25;98092.13;5100726;28;20421;-54
2022/06/06 10:54:32;;;;;;;;;;;;;;;21.72;49.14;98093.03;5100001;28;19927;-55
2022/06/06 10:57:07;;;;;;;;;;;;;;;21.82;46.46;98089.59;5101617;28;19928;-54
2022/06/06 10:59:54;;;;;;;;;;;;;;;21.80;45.32;98096.69;5079224;28;20014;-54
2022/06/06 11:02:42;;;;;;;;;;;;;;;21.74;46.24;98093.47;5095629;28;19926;-54
2022/06/06 11:05:42;;;;;;;;;;;;;;;21.80;45.56;98097.47;5102203;28;19919;-54
2022/06/06 11:08:30;;;;;;;;;;;;;;;21.90;46.13;98085.72;5099743;28;19919;-54
2022/06/06 11:11:05;;;;;;;;;;;;;;;21.85;46.62;98083.31;5099616;28;19974;-54
2022/06/06 11:13:43;;;;;;;;;;;;;;;21.87;46.34;98083.69;5105265;28;19931;-54
2022/06/06 11:16:29;;;;;;;;;;;;;;;21.95;47.38;98073.50;5105007;28;19931;-54
2022/06/06 11:19:02;;;;;;;;;;;;;;;22.00;47.59;98069.56;5106746;28;19927;-54
2022/06/06 11:21:45;;;;;;;;;;;;;;;21.94;46.94;98058.88;5102787;28;19927;-52
2022/06/06 11:24:18;;;;;;;;;;;;;;;21.95;47.77;98063.25;5105896;28;20314;-54
2022/06/06 11:27:02;;;;;;;;;;;;;;;22.00;45.55;98056.56;5109332;28;19928;-55
2022/06/06 11:29:44;;;;;;;;;;;;;;;21.95;47.44;98066.00;5105181;28;19949;-53
2022/06/06 11:32:28;;;;;;;;;;;;;;;21.81;47.59;98057.56;5103850;28;20230;-54
2022/06/06 11:35:12;;;;;;;;;;;;;;;21.85;47.75;98058.41;5109281;28;19927;-53
2022/06/06 11:37:55;;;;;;;;;;;;;;;21.90;48.01;98057.28;5104546;28;20044;-53
2022/06/06 11:40:32;;;;;;;;;;;;;;;22.11;46.97;98059.44;5104599;28;19920;-52
2022/06/06 11:43:08;;;;;;;;;;;;;;;22.17;46.29;98046.81;5102270;28;20356;-53
2022/06/06 11:45:43;;;;;;;;;;;;;;;22.19;46.20;98050.00;5106896;28;20204;-54
2022/06/06 11:48:17;;;;;;;;;;;;;;;21.99;46.70;98052.19;5104490;28;19923;-55
2022/06/06 11:51:04;;;;;;;;;;;;;;;22.13;47.27;98049.56;5105971;28;19920;-54
2022/06/06 11:53:58;;;;;;;;;;;;;;;22.20;46.53;98035.75;5106565;28;19924;-54
2022/06/06 11:56:39;;;;;;;;;;;;;;;22.20;45.23;98033.00;5097213;28;19931;-55
2022/06/06 11:59:25;;;;;;;;;;;;;;;22.17;46.03;98033.78;5105969;28;19931;-51
2022/06/06 12:02:10;;;;;;;;;;;;;;;22.16;46.08;98036.94;5103446;28;20313;-49
2022/06/06 12:04:49;;;;;;;;;;;;;;;22.29;45.75;98034.66;5105640;28;19924;-54
2022/06/06 12:07:35;;;;;;;;;;;;;;;22.09;46.04;98034.06;5103885;28;19923;-54
2022/06/06 12:10:05;;;;;;;;;;;;;;;22.05;44.77;98033.25;5102070;28;19919;-54
2022/06/06 12:15:47;;;;;;;;;;;;;;;21.68;45.31;98023.91;5107167;28;20466;-53
2022/06/06 12:19:01;;;;;;;;;;;;;;;21.72;45.09;98029.44;5098521;28;20391;-52
2022/06/06 12:21:55;;;;;;;;;;;;;;;21.45;46.83;98026.03;5097546;28;19924;-51
2022/06/06 12:24:54;;;;;;;;;;;;;;;21.29;48.46;98037.31;5091125;28;19924;-53
2022/06/06 12:27:48;;;;;;;;;;;;;;;21.17;49.17;98021.00;5100894;28;20369;-52
2022/06/06 12:31:18;;;;;;;;;;;;;;;20.95;51.35;98035.75;5094487;28;19920;-52
2022/06/06 12:34:08;;;;;;;;;;;;;;;20.82;51.64;98027.69;5098913;28;19932;-53
2022/06/06 12:37:22;;;;;;;;;;;;;;;20.74;49.78;98034.31;5092815;28;19919;-51
2022/06/06 12:40:15;;;;;;;;;;;;;;;20.73;48.98;98031.94;5070389;28;19927;-53
2022/06/06 12:43:05;;;;;;;;;;;;;;;20.83;49.30;98026.56;5076954;28;20202;-54
2022/06/06 12:45:58;;;;;;;;;;;;;;;20.90;48.49;98017.53;5082219;28;19924;-52
2022/06/06 12:49:09;;;;;;;;;;;;;;;21.02;47.80;98013.72;5081259;28;20022;-53
2022/06/06 12:52:05;;;;;;;;;;;;;;;21.11;47.55;98015.03;5081554;28;20423;-53
2022/06/06 12:58:19;;;;;;;;;;;;;;;21.32;47.14;98020.00;5077946;28;19920;-53
2022/06/06 13:04:43;;;;;;;;;;;;;;;21.32;47.48;98019.22;5080967;28;19927;-54
2022/06/06 13:07:39;;;;;;;;;;;;;;;21.33;47.77;98024.34;5075424;28;19920;-53
2022/06/06 13:10:35;;;;;;;;;;;;;;;21.36;47.67;98026.38;5076914;28;19931;-54
2022/06/06 13:13:34;;;;;;;;;;;;;;;21.50;48.04;98027.66;5074657;28;19982;-54
2022/06/06 13:16:26;;;;;;;;;;;;;;;21.46;47.58;98022.09;5080071;28;19924;-53
2022/06/06 13:19:21;;;;;;;;;;;;;;;21.31;47.04;98026.72;5076482;28;20320;-53
2022/06/06 13:22:15;;;;;;;;;;;;;;;21.36;47.70;98020.03;5087159;28;19924;-54
2022/06/06 13:25:10;;;;;;;;;;;;;;;21.33;47.41;98018.81;5065290;28;19921;-52
2022/06/06 13:28:11;;;;;;;;;;;;;;;21.29;46.87;98022.69;5069606;28;20422;-54
2022/06/06 13:31:15;;;;;;;;;;;;;;;21.25;47.41;98013.56;5081047;28;19935;-53
2022/06/06 13:34:09;;;;;;;;;;;;;;;21.19;46.99;98015.88;5085487;28;19924;-54
2022/06/06 13:37:18;;;;;;;;;;;;;;;21.25;47.05;98017.13;5078857;28;19975;-52
2022/06/06 13:40:12;;;;;;;;;;;;;;;21.23;46.68;98019.47;5054257;28;19921;-52
2022/06/06 13:43:28;;;;;;;;;;;;;;;21.14;47.27;98013.47;5062296;28;19935;-52
2022/06/06 13:46:21;;;;;;;;;;;;;;;21.17;47.79;98012.72;5071743;28;20397;-54
2022/06/06 13:49:31;;;;;;;;;;;;;;;21.18;47.33;98006.00;5057798;28;19935;-52
2022/06/06 13:52:24;;;;;;;;;;;;;;;21.01;47.39;98001.09;5064666;28;19934;-51
2022/06/06 13:55:26;;;;;;;;;;;;;;;21.11;48.26;97997.66;5060170;28;20195;-53
2022/06/06 13:58:21;;;;;;;;;;;;;;;21.06;47.63;97998.00;5063504;28;20269;-54
2022/06/06 14:01:17;;;;;;;;;;;;;;;21.09;47.54;97991.69;5067598;28;19924;-52
2022/06/06 14:04:09;;;;;;;;;;;;;;;21.04;47.38;97995.63;5060559;28;19924;-52
2022/06/06 14:07:23;;;;;;;;;;;;;;;20.98;47.29;98002.63;5059446;28;19936;-53
2022/06/06 14:10:15;;;;;;;;;;;;;;;21.14;47.02;97994.91;5067010;28;19928;-53
2022/06/06 14:13:05;;;;;;;;;;;;;;;21.25;46.56;98003.31;5060174;28;19925;-54
2022/06/06 14:15:56;;;;;;;;;;;;;;;21.37;46.42;98002.28;5058132;28;19954;-54
2022/06/06 14:18:48;;;;;;;;;;;;;;;21.45;45.63;98003.94;5059666;28;19927;-54
2022/06/06 14:21:38;;;;;;;;;;;;;;;21.36;46.43;98000.69;5053109;28;19948;-53
2022/06/06 14:27:41;;;;;;;;;;;;;;;21.49;46.41;97999.25;5068274;28;19932;-53
2022/06/06 14:30:31;;;;;;;;;;;;;;;21.56;46.56;97996.53;5052989;28;20368;-53
2022/06/06 14:33:24;;;;;;;;;;;;;;;21.58;46.41;97999.72;5063055;28;19958;-54
2022/06/06 14:36:19;;;;;;;;;;;;;;;21.52;46.82;97997.66;5058269;28;20157;-53
2022/06/06 14:39:16;;;;;;;;;;;;;;;21.39;47.14;97989.66;5074169;28;20297;-53
2022/06/06 14:42:10;;;;;;;;;;;;;;;21.32;47.80;97988.81;5070938;28;20390;-52
2022/06/06 14:45:06;;;;;;;;;;;;;;;21.37;48.07;97986.50;5099750;28;20056;-54
2022/06/06 14:48:20;;;;;;;;;;;;;;;21.27;48.33;97995.44;5097789;28;20619;-52
2022/06/06 14:51:17;;;;;;;;;;;;;;;21.29;48.33;97984.81;5091744;28;20265;-54
2022/06/06 14:54:06;;;;;;;;;;;;;;;21.13;47.81;97976.75;5095987;28;19920;-49
2022/06/06 14:56:57;;;;;;;;;;;;;;;21.11;48.22;97986.59;5096083;28;20348;-54
2022/06/06 14:59:47;;;;;;;;;;;;;;;21.06;48.27;97986.94;5095430;28;19920;-54
2022/06/06 15:02:38;;;;;;;;;;;;;;;20.99;48.58;97987.69;5094636;28;19942;-53
2022/06/06 15:05:28;;;;;;;;;;;;;;;20.99;48.60;97987.69;5093638;28;19919;-51
2022/06/06 15:08:43;;;;;;;;;;;;;;;20.92;49.00;97976.53;5091363;28;19920;-53
2022/06/06 15:11:33;;;;;;;;;;;;;;;20.93;48.96;97973.41;5089884;28;19924;-53
2022/06/06 15:14:23;;;;;;;;;;;;;;;20.85;47.99;97976.47;5093195;28;19920;-51
2022/06/06 15:17:12;;;;;;;;;;;;;;;20.85;48.21;97977.25;5089746;28;19924;-50
2022/06/06 15:20:27;;;;;;;;;;;;;;;20.78;47.41;97977.19;5097054;28;19932;-53
2022/06/06 15:22:58;;;;;;;;;;;;;;;20.74;47.68;97978.31;5095366;28;20267;-51
2022/06/06 15:25:30;;;;;;;;;;;;;;;20.78;47.03;97976.38;5099857;28;20255;-54
2022/06/06 15:28:06;;;;;;;;;;;;;;;20.76;46.79;97979.50;5093231;28;19919;-53
2022/06/06 15:30:37;;;;;;;;;;;;;;;20.75;46.56;97975.16;5099752;28;19931;-51
2022/06/06 15:33:09;;;;;;;;;;;;;;;20.74;47.35;97975.53;5099821;28;19928;-49
2022/06/06 15:35:41;;;;;;;;;;;;;;;20.77;47.18;97975.56;5082332;28;20030;-53
2022/06/06 15:38:15;;;;;;;;;;;;;;;20.70;47.08;97969.19;5101011;28;19967;-53
2022/06/06 15:40:43;;;;;;;;;;;;;;;20.69;46.86;97967.59;5105776;28;20052;-53
2022/06/06 15:43:15;;;;;;;;;;;;;;;20.68;46.16;97964.03;5105025;28;19930;-53
2022/06/06 15:45:49;;;;;;;;;;;;;;;20.72;46.38;97961.31;5105499;28;20228;-54
2022/06/06 15:48:18;;;;;;;;;;;;;;;20.77;45.89;97961.75;5104788;28;19955;-54
2022/06/06 15:50:49;;;;;;;;;;;;;;;20.74;45.81;97957.00;5094804;28;20297;-54
2022/06/06 15:53:24;;;;;;;;;;;;;;;20.77;45.67;97958.22;5104325;28;19959;-53